Time;durP1;ratioP1;P1;durP2;ratioP2;P2;SDS_P1;SDS_P2;PMS_P1;PMS_P2;Temp;Humidity;BMP_temperature;BMP_pressure;BME280_temperature;BME280_humidity;BME280_pressure;Samples;Min_cycle;Max_cycle;Signal;HPM_P1;HPM_P2
2022/03/06 00:04:54;;;;;;;20.00;17.95;;;;;;;-2.48;82.86;100789.75;10504341;28;20036;-73
2022/03/06 00:09:56;;;;;;;20.13;16.95;;;;;;;-2.25;83.03;100788.81;10505725;28;20090;-73
2022/03/06 00:14:57;;;;;;;21.67;15.63;;;;;;;-1.72;79.81;100789.59;10503972;28;20048;-72
2022/03/06 00:20:01;;;;;;;18.48;16.48;;;;;;;-2.46;81.71;100796.72;10504282;28;20454;-72
2022/03/06 00:25:04;;;;;;;21.98;18.23;;;;;;;-2.48;83.04;100798.34;10503734;28;20055;-72
2022/03/06 00:30:07;;;;;;;23.95;18.08;;;;;;;-1.93;79.90;100792.41;10504395;28;20051;-72
2022/03/06 00:35:09;;;;;;;20.45;17.75;;;;;;;-2.22;81.50;100796.63;10486541;28;20048;-72
2022/03/06 00:40:12;;;;;;;18.48;16.13;;;;;;;-2.20;81.10;100796.69;10503350;28;20051;-73
2022/03/06 00:45:13;;;;;;;20.90;17.45;;;;;;;-2.21;80.59;100793.25;10503406;28;20059;-72
2022/03/06 00:50:15;;;;;;;23.70;18.15;;;;;;;-2.69;81.75;100792.50;10485241;28;20382;-72
2022/03/06 00:55:16;;;;;;;30.88;18.30;;;;;;;-2.94;83.50;100803.66;10484633;28;20055;-72
2022/03/06 01:00:18;;;;;;;23.48;17.38;;;;;;;-2.35;83.74;100795.34;10502315;28;20114;-72
2022/03/06 01:05:20;;;;;;;19.13;17.10;;;;;;;-2.18;82.19;100795.91;10502939;28;20048;-72
2022/03/06 01:10:21;;;;;;;23.98;17.70;;;;;;;-2.08;81.33;100797.06;10483683;28;20452;-72
2022/03/06 01:15:23;;;;;;;19.45;16.92;;;;;;;-2.24;82.01;100795.72;10501908;28;20108;-72
2022/03/06 01:20:25;;;;;;;18.67;16.73;;;;;;;-2.52;82.55;100796.53;10501331;28;20044;-71
2022/03/06 01:25:27;;;;;;;23.70;18.33;;;;;;;-2.65;84.01;100795.25;10501392;28;20102;-72
2022/03/06 01:30:29;;;;;;;20.63;18.48;;;;;;;-2.06;84.49;100785.13;10501425;28;20064;-72
2022/03/06 01:35:30;;;;;;;19.98;18.13;;;;;;;-2.17;83.50;100804.50;10484730;28;20048;-72
2022/03/06 01:40:32;;;;;;;18.88;16.98;;;;;;;-1.85;83.71;100796.09;10501042;28;20036;-72
2022/03/06 01:45:34;;;;;;;21.63;17.50;;;;;;;-1.50;80.19;100793.69;10483908;28;20059;-72
2022/03/06 01:50:37;;;;;;;21.38;17.90;;;;;;;-1.80;81.42;100793.66;10501337;28;20036;-72
2022/03/06 01:55:40;;;;;;;24.77;18.85;;;;;;;-1.50;80.47;100785.97;10500408;28;20108;-72
2022/03/06 02:00:44;;;;;;;21.85;17.25;;;;;;;-1.57;80.53;100786.59;10500670;28;20094;-72
2022/03/06 02:05:46;;;;;;;21.85;19.27;;;;;;;-1.88;81.73;100788.25;10500410;28;20044;-71
2022/03/06 02:10:50;;;;;;;21.75;17.42;;;;;;;-1.93;83.38;100786.38;10499512;28;20064;-72
2022/03/06 02:15:52;;;;;;;19.75;17.40;;;;;;;-1.42;81.50;100776.72;10499964;28;20131;-72
2022/03/06 02:20:54;;;;;;;19.90;17.20;;;;;;;-1.64;81.69;100780.41;10499239;28;20612;-73
2022/03/06 02:25:55;;;;;;;17.50;15.68;;;;;;;-1.34;82.00;100777.81;10499202;28;20079;-71
2022/03/06 02:30:57;;;;;;;20.35;16.85;;;;;;;-1.22;79.68;100782.44;10499862;28;20060;-73
2022/03/06 02:35:59;;;;;;;21.73;17.02;;;;;;;-1.39;81.15;100765.63;10498963;28;20062;-71
2022/03/06 02:41:00;;;;;;;16.92;15.35;;;;;;;-1.37;80.28;100762.25;10480999;28;20046;-72
2022/03/06 02:46:02;;;;;;;17.98;15.93;;;;;;;-1.72;81.64;100762.97;10499641;28;20070;-71
2022/03/06 02:51:05;;;;;;;19.73;16.55;;;;;;;-1.15;80.87;100748.25;10503797;28;20106;-72
2022/03/06 02:56:07;;;;;;;16.90;15.30;;;;;;;-0.98;78.27;100753.84;10507357;28;20094;-72
2022/03/06 03:01:09;;;;;;;15.80;14.40;;;;;;;-1.49;80.61;100753.31;10488611;28;20425;-72
2022/03/06 03:06:11;;;;;;;18.35;16.35;;;;;;;-1.67;82.02;100748.50;10505864;28;20128;-72
2022/03/06 03:11:12;;;;;;;17.75;16.15;;;;;;;-1.69;82.93;100757.88;10506749;28;20063;-72
2022/03/06 03:16:14;;;;;;;16.40;14.73;;;;;;;-1.54;82.64;100756.63;10506283;28;20468;-72
2022/03/06 03:21:15;;;;;;;17.60;15.90;;;;;;;-1.48;82.38;100758.50;10487351;28;20512;-71
2022/03/06 03:26:17;;;;;;;17.63;16.00;;;;;;;-1.62;83.02;100763.25;10505856;28;20045;-72
2022/03/06 03:31:19;;;;;;;20.75;17.88;;;;;;;-1.61;82.94;100774.44;10504664;28;20059;-71
2022/03/06 03:36:22;;;;;;;26.45;17.35;;;;;;;-1.57;82.53;100777.16;10504980;28;20049;-73
2022/03/06 03:41:24;;;;;;;22.13;17.67;;;;;;;-1.45;82.41;100779.22;10504128;28;20106;-72
2022/03/06 03:46:26;;;;;;;17.05;15.45;;;;;;;-1.54;83.05;100781.53;10505327;28;20048;-73
2022/03/06 03:51:27;;;;;;;18.80;16.48;;;;;;;-1.52;83.21;100791.03;10504301;28;20127;-72
2022/03/06 03:56:29;;;;;;;18.08;16.25;;;;;;;-1.59;83.52;100778.81;10503577;28;20101;-71
2022/03/06 04:01:31;;;;;;;18.35;16.67;;;;;;;-1.58;83.51;100778.00;10503460;28;20045;-70
2022/03/06 04:06:32;;;;;;;18.13;16.23;;;;;;;-1.62;83.84;100783.88;10503704;28;20048;-71
2022/03/06 04:11:34;;;;;;;17.98;16.08;;;;;;;-1.58;83.83;100784.84;10503976;28;20091;-71
2022/03/06 04:16:36;;;;;;;24.25;16.55;;;;;;;-1.54;83.14;100792.72;10503336;28;20067;-71
2022/03/06 04:21:38;;;;;;;19.55;17.77;;;;;;;-1.54;83.64;100792.72;10504093;28;20433;-72
2022/03/06 04:26:39;;;;;;;18.25;16.67;;;;;;;-1.67;84.10;100798.34;10503706;28;20487;-72
2022/03/06 04:31:41;;;;;;;18.13;15.65;;;;;;;-1.13;82.72;100797.31;10504019;28;20093;-71
2022/03/06 04:36:43;;;;;;;17.02;15.48;;;;;;;-1.09;80.91;100794.84;10503308;28;20052;-71
2022/03/06 04:41:44;;;;;;;17.83;16.02;;;;;;;-0.87;79.23;100790.28;10502693;28;20049;-71
2022/03/06 04:46:48;;;;;;;17.55;15.90;;;;;;;-0.99;79.23;100792.50;10502552;28;20094;-72
2022/03/06 04:51:50;;;;;;;15.32;13.82;;;;;;;-0.92;78.41;100795.31;10501989;28;20127;-71
2022/03/06 04:56:52;;;;;;;16.27;14.68;;;;;;;-1.31;80.38;100797.66;10501570;28;20037;-72
2022/03/06 05:01:54;;;;;;;16.75;15.20;;;;;;;-1.50;81.52;100798.84;10503340;28;20044;-71
2022/03/06 05:06:56;;;;;;;14.98;13.48;;;;;;;-1.55;81.82;100801.28;10502586;28;20102;-70
2022/03/06 05:11:57;;;;;;;14.20;12.90;;;;;;;-1.43;80.91;100805.03;10483869;28;20047;-71
2022/03/06 05:16:59;;;;;;;12.48;11.27;;;;;;;-1.34;79.46;100798.44;10485568;28;20490;-70
2022/03/06 05:22:00;;;;;;;12.82;11.63;;;;;;;-1.48;79.80;100793.72;10501944;28;20486;-70
2022/03/06 05:27:02;;;;;;;12.85;11.68;;;;;;;-1.47;80.20;100795.47;10501632;28;20093;-70
2022/03/06 05:32:04;;;;;;;12.32;10.85;;;;;;;-1.28;78.28;100796.06;10501482;28;20594;-70
2022/03/06 05:37:06;;;;;;;11.45;10.30;;;;;;;-1.40;78.84;100795.69;10483916;28;20048;-70
2022/03/06 05:42:07;;;;;;;10.52;9.43;;;;;;;-1.31;78.79;100801.09;10501736;28;20394;-70
2022/03/06 05:47:09;;;;;;;14.77;13.23;;;;;;;-1.18;77.02;100802.34;10483179;28;20045;-71
2022/03/06 05:52:11;;;;;;;16.80;15.23;;;;;;;-1.29;76.62;100808.88;10501334;28;20045;-70
2022/03/06 05:57:12;;;;;;;14.88;13.30;;;;;;;-1.20;76.19;100810.84;10500768;28;20050;-70
2022/03/06 06:02:14;;;;;;;11.20;10.10;;;;;;;-1.23;76.21;100816.81;10500910;28;20136;-71
2022/03/06 06:07:16;;;;;;;9.60;8.60;;;;;;;-0.73;73.63;100822.47;10500527;28;20047;-72
2022/03/06 06:12:18;;;;;;;8.70;7.80;;;;;;;-1.14;74.59;100819.66;10500577;28;20051;-72
2022/03/06 06:17:20;;;;;;;11.10;8.93;;;;;;;-1.15;75.36;100822.16;10499902;28;20043;-71
2022/03/06 06:22:22;;;;;;;18.80;16.35;;;;;;;-0.88;73.13;100824.66;10500658;28;20044;-71
2022/03/06 06:27:23;;;;;;;17.50;15.52;;;;;;;-0.86;73.27;100830.72;10490404;28;20044;-72
2022/03/06 06:32:25;;;;;;;14.40;10.90;;;;;;;-0.85;72.85;100832.47;10508956;28;20048;-71
2022/03/06 06:37:26;;;;;;;12.52;9.98;;;;;;;-0.80;72.00;100825.72;10491425;28;20056;-72
2022/03/06 06:42:28;;;;;;;11.80;8.20;;;;;;;-1.12;72.80;100828.28;10491513;28;20040;-71
2022/03/06 06:47:29;;;;;;;8.75;7.50;;;;;;;-1.10;73.03;100824.06;10491114;28;20049;-71
2022/03/06 06:52:31;;;;;;;10.75;7.55;;;;;;;-0.88;71.55;100832.41;10509120;28;20045;-71
2022/03/06 06:57:33;;;;;;;7.70;6.90;;;;;;;-0.99;71.61;100836.38;10489217;28;20078;-71
2022/03/06 07:02:35;;;;;;;11.73;7.75;;;;;;;-0.99;72.00;100836.38;10490001;28;20086;-71
2022/03/06 07:07:37;;;;;;;8.45;7.60;;;;;;;-1.00;72.04;100832.06;10492190;28;20040;-71
2022/03/06 07:12:48;;;;;;;8.98;7.32;;;;;;;-0.90;72.13;100845.25;10508914;28;20040;-70
2022/03/06 07:17:50;;;;;;;7.68;6.97;;;;;;;-0.80;70.72;100847.28;10507187;28;20078;-72
2022/03/06 07:22:52;;;;;;;7.57;6.78;;;;;;;-0.69;70.78;100847.53;10508028;28;20062;-71
2022/03/06 07:27:54;;;;;;;8.80;6.90;;;;;;;-0.80;68.93;100848.94;10506185;28;20127;-72
2022/03/06 07:32:55;;;;;;;7.53;6.82;;;;;;;-0.69;69.04;100857.00;10507133;28;20479;-70
2022/03/06 07:37:58;;;;;;;7.60;6.85;;;;;;;-0.61;68.26;100856.38;10505510;28;20551;-71
2022/03/06 07:42:59;;;;;;;9.43;7.15;;;;;;;-0.74;68.63;100849.13;10505881;28;20444;-71
2022/03/06 07:48:03;;;;;;;7.13;6.43;;;;;;;-0.72;67.89;100850.03;10507161;28;20094;-72
2022/03/06 07:53:05;;;;;;;6.60;6.00;;;;;;;-0.53;68.31;100856.59;10488150;28;20060;-71
2022/03/06 07:58:07;;;;;;;11.50;6.70;;;;;;;-0.19;66.22;100857.44;10486614;28;20513;-71
2022/03/06 08:03:09;;;;;;;7.55;6.13;;;;;;;-0.31;66.74;100852.81;10504448;28;20490;-71
2022/03/06 08:08:11;;;;;;;7.47;5.90;;;;;;;-0.25;66.06;100860.75;10503719;28;20128;-71
2022/03/06 08:13:13;;;;;;;7.20;6.50;;;;;;;-0.29;65.88;100854.63;10503924;28;20040;-72
2022/03/06 08:18:14;;;;;;;7.25;5.88;;;;;;;0.01;64.44;100856.22;10504647;28;20068;-71
2022/03/06 08:23:16;;;;;;;12.05;6.45;;;;;;;0.31;63.97;100848.31;10503952;28;20414;-71
2022/03/06 08:28:18;;;;;;;6.68;5.78;;;;;;;0.27;62.78;100849.06;10485468;28;20080;-71
2022/03/06 08:33:19;;;;;;;9.23;6.85;;;;;;;0.34;62.96;100845.78;10503291;28;20058;-72
2022/03/06 08:38:21;;;;;;;9.88;6.45;;;;;;;0.47;62.14;100852.97;10503986;28;20041;-71
2022/03/06 08:43:23;;;;;;;10.10;5.55;;;;;;;0.38;61.50;100852.75;10485588;28;20475;-71
2022/03/06 08:48:24;;;;;;;6.25;5.65;;;;;;;0.21;60.85;100867.00;10502918;28;20494;-71
2022/03/06 08:53:26;;;;;;;6.15;5.40;;;;;;;0.40;61.90;100855.38;10486377;28;20068;-71
2022/03/06 08:58:28;;;;;;;6.70;5.28;;;;;;;0.66;59.87;100855.94;10503883;28;20409;-71
2022/03/06 09:03:29;;;;;;;7.57;5.20;;;;;;;0.99;57.07;100854.06;10502432;28;20111;-72
2022/03/06 09:08:31;;;;;;;4.55;3.75;;;;;;;1.10;54.07;100853.41;10502646;28;20047;-72
2022/03/06 09:13:34;;;;;;;6.50;3.92;;;;;;;1.07;53.54;100853.38;10469785;28;20044;-72
2022/03/06 09:18:36;;;;;;;5.35;3.63;;;;;;;1.17;54.60;100852.69;10484371;28;20051;-71
2022/03/06 09:23:37;;;;;;;4.32;3.58;;;;;;;1.22;53.98;100849.34;10482653;28;20041;-71
2022/03/06 09:28:39;;;;;;;4.90;3.67;;;;;;;1.38;52.69;100842.75;10485572;28;20068;-72
2022/03/06 09:33:41;;;;;;;4.25;3.42;;;;;;;1.39;51.69;100849.66;10500534;28;20082;-72
2022/03/06 09:39:06;;;;;;;3.85;3.45;;;;;;;1.42;52.04;100852.31;10486042;28;20041;-72
2022/03/06 09:44:10;;;;;;;5.68;3.90;;;;;;;1.53;52.40;100836.94;10503588;28;20472;-71
2022/03/06 09:49:11;;;;;;;4.60;3.28;;;;;;;1.30;51.61;100839.13;10503302;28;20076;-71
2022/03/06 09:54:13;;;;;;;4.70;3.30;;;;;;;1.09;50.85;100843.91;10502484;28;20039;-70
2022/03/06 09:59:15;;;;;;;5.22;3.75;;;;;;;1.18;51.70;100850.13;10483612;28;20057;-71
2022/03/06 10:04:43;;;;;;;3.95;3.58;;;;;;;1.15;51.16;100856.94;10503977;28;20440;-71
2022/03/06 10:09:52;;;;;;;5.38;3.67;;;;;;;1.19;51.10;100851.84;10499705;28;20121;-71
2022/03/06 10:14:59;;;;;;;4.18;3.78;;;;;;;1.14;52.31;100852.63;10501799;28;20036;-71
2022/03/06 10:20:05;;;;;;;5.28;4.45;;;;;;;0.98;51.25;100852.34;10502568;28;20070;-71
2022/03/06 10:25:09;;;;;;;4.43;3.70;;;;;;;1.07;51.74;100854.22;10502386;28;20042;-71
2022/03/06 10:30:29;;;;;;;5.47;3.92;;;;;;;1.23;51.10;100851.06;10501679;28;20399;-70
2022/03/06 10:35:41;;;;;;;8.32;4.60;;;;;;;1.07;52.19;100856.81;10502031;28;20504;-72
2022/03/06 10:40:43;;;;;;;5.55;4.50;;;;;;;1.35;52.27;100863.41;10501002;28;20045;-71
2022/03/06 10:45:46;;;;;;;5.93;4.95;;;;;;;1.43;51.62;100855.78;10500931;28;20052;-71
2022/03/06 10:50:57;;;;;;;5.63;4.75;;;;;;;1.62;50.70;100851.78;10500175;28;20087;-71
2022/03/06 10:56:14;;;;;;;6.22;5.35;;;;;;;1.66;50.12;100845.81;10500715;28;20040;-71
2022/03/06 11:01:16;;;;;;;6.35;5.10;;;;;;;1.47;51.33;100839.44;10482757;28;20140;-71
2022/03/06 11:06:19;;;;;;;6.25;5.63;;;;;;;1.75;50.63;100839.06;10499777;28;20048;-71
2022/03/06 11:11:21;;;;;;;6.32;5.72;;;;;;;1.57;51.23;100835.28;10503166;28;20049;-71
2022/03/06 11:16:23;;;;;;;7.22;5.97;;;;;;;1.42;50.90;100841.09;10506795;28;20072;-72
2022/03/06 11:21:27;;;;;;;7.70;5.70;;;;;;;1.07;51.27;100840.41;10507986;28;20048;-71
2022/03/06 11:26:48;;;;;;;5.70;5.10;;;;;;;1.10;50.61;100832.69;10505760;28;20075;-72
2022/03/06 11:31:52;;;;;;;5.63;4.53;;;;;;;0.88;51.22;100834.84;10506613;28;20040;-72
2022/03/06 11:36:55;;;;;;;10.38;5.63;;;;;;;0.88;51.11;100831.38;10507341;28;20048;-72
2022/03/06 11:42:01;;;;;;;4.95;4.45;;;;;;;0.80;50.71;100820.91;10507986;28;20466;-72
2022/03/06 11:47:18;;;;;;;5.45;4.88;;;;;;;0.72;50.54;100819.88;10508706;28;20101;-72
2022/03/06 11:52:33;;;;;;;5.63;4.27;;;;;;;0.79;50.52;100816.53;10506460;28;20033;-72
2022/03/06 11:57:43;;;;;;;11.60;4.55;;;;;;;0.47;50.25;100815.88;10505962;28;20047;-72
2022/03/06 12:02:50;;;;;;;6.45;4.45;;;;;;;0.67;50.77;100806.84;10505820;28;20060;-71
2022/03/06 12:07:52;;;;;;;5.25;4.13;;;;;;;0.67;50.72;100816.31;10506258;28;20064;-72
2022/03/06 12:13:00;;;;;;;6.40;4.85;;;;;;;0.76;49.13;100806.16;10504495;28;20079;-72
2022/03/06 12:18:03;;;;;;;4.35;3.95;;;;;;;0.79;48.90;100801.03;10486732;28;20437;-71
2022/03/06 12:23:07;;;;;;;4.82;3.42;;;;;;;0.67;49.96;100800.78;10504644;28;20054;-72
2022/03/06 12:28:10;;;;;;;4.80;3.17;;;;;;;0.88;48.76;100798.59;10486112;28;20460;-71
2022/03/06 12:33:38;;;;;;;4.60;3.20;;;;;;;0.85;48.73;100801.16;10504635;28;20037;-72
2022/03/06 12:38:41;;;;;;;4.22;3.53;;;;;;;0.75;49.56;100792.34;10504556;28;20083;-72
2022/03/06 12:43:49;;;;;;;4.13;3.72;;;;;;;0.72;49.46;100788.81;10506280;28;20044;-72
2022/03/06 12:48:51;;;;;;;4.15;2.90;;;;;;;0.54;49.30;100781.56;10504439;28;20572;-72
2022/03/06 12:53:52;;;;;;;3.80;3.03;;;;;;;0.62;49.50;100779.09;10504740;28;20059;-72
2022/03/06 12:59:03;;;;;;;4.20;3.45;;;;;;;0.73;48.72;100772.44;10503525;28;20048;-72
2022/03/06 13:04:06;;;;;;;3.85;3.20;;;;;;;0.70;48.83;100777.53;10504846;28;20040;-72
2022/03/06 13:09:17;;;;;;;3.72;3.20;;;;;;;0.60;47.76;100784.25;10502880;28;20048;-72
2022/03/06 13:14:31;;;;;;;3.97;3.08;;;;;;;0.45;48.00;100781.38;10484420;28;20036;-72
2022/03/06 13:19:40;;;;;;;4.18;3.25;;;;;;;0.45;48.82;100784.81;10484746;28;20047;-72
2022/03/06 13:24:48;;;;;;;4.13;2.88;;;;;;;0.58;48.15;100780.78;10502905;28;20049;-73
2022/03/06 13:30:05;;;;;;;3.97;3.63;;;;;;;0.66;47.71;100786.09;10524943;28;20044;-72
2022/03/06 13:35:07;;;;;;;4.00;2.70;;;;;;;0.74;47.49;100777.63;10487831;28;20032;-73
2022/03/06 13:40:12;;;;;;;3.95;3.55;;;;;;;0.78;47.65;100785.47;10499187;28;20059;-71
2022/03/06 13:45:14;;;;;;;3.78;3.47;;;;;;;0.68;47.83;100781.84;10502325;28;20040;-72
2022/03/06 13:50:45;;;;;;;4.90;4.45;;;;;;;0.50;49.08;100783.19;10503340;28;20048;-72
2022/03/06 13:55:50;;;;;;;5.72;3.00;;;;;;;0.59;48.71;100784.22;10501955;28;20061;-71
2022/03/06 14:00:56;;;;;;;5.10;4.63;;;;;;;0.58;49.09;100785.09;10484270;28;20119;-72
2022/03/06 14:06:00;;;;;;;5.10;4.13;;;;;;;0.74;48.77;100785.41;10502752;28;20124;-72
2022/03/06 14:11:03;;;;;;;4.10;3.70;;;;;;;0.52;48.33;100787.53;10503867;28;20044;-71
2022/03/06 14:16:08;;;;;;;3.90;3.50;;;;;;;0.46;48.55;100781.38;10501061;28;20083;-72
2022/03/06 14:21:22;;;;;;;3.55;2.92;;;;;;;0.69;47.95;100787.03;10504592;28;20079;-72
2022/03/06 14:26:26;;;;;;;3.90;3.58;;;;;;;0.72;48.53;100781.94;10504940;28;20047;-72
2022/03/06 14:31:28;;;;;;;4.20;3.45;;;;;;;0.79;48.68;100792.38;10485933;28;20086;-72
2022/03/06 14:36:30;;;;;;;4.03;3.33;;;;;;;0.78;48.23;100788.94;10503917;28;20387;-71
2022/03/06 14:41:33;;;;;;;3.50;3.20;;;;;;;0.49;48.39;100784.03;10502936;28;20379;-72
2022/03/06 14:46:35;;;;;;;4.13;3.72;;;;;;;0.55;48.28;100795.34;10506446;28;20105;-73
2022/03/06 14:51:37;;;;;;;4.57;3.72;;;;;;;0.45;48.55;100782.22;10509544;28;20049;-72
2022/03/06 14:56:40;;;;;;;5.78;4.53;;;;;;;0.32;49.20;100782.81;10508824;28;20048;-73
2022/03/06 15:01:42;;;;;;;5.60;3.95;;;;;;;0.71;48.17;100772.41;10491870;28;20043;-72
2022/03/06 15:06:44;;;;;;;4.75;3.90;;;;;;;0.63;47.77;100770.53;10492483;28;20529;-73
2022/03/06 15:11:46;;;;;;;4.50;4.10;;;;;;;0.47;48.90;100769.31;10511998;28;20544;-73
2022/03/06 15:16:47;;;;;;;5.43;4.10;;;;;;;0.69;48.96;100776.69;10510651;28;20052;-72
2022/03/06 15:21:49;;;;;;;5.20;4.05;;;;;;;0.82;47.75;100770.03;10510907;28;20045;-72
2022/03/06 15:26:51;;;;;;;5.50;4.28;;;;;;;0.67;48.75;100777.50;10510521;28;20048;-72
2022/03/06 15:31:53;;;;;;;4.35;3.95;;;;;;;0.57;49.77;100785.91;10510177;28;20075;-72
2022/03/06 15:36:55;;;;;;;4.20;3.78;;;;;;;0.45;49.51;100783.94;10506919;28;20399;-72
2022/03/06 15:42:08;;;;;;;3.75;3.35;;;;;;;0.52;49.58;100782.34;10499079;28;20068;-72
2022/03/06 15:47:10;;;;;;;7.00;4.32;;;;;;;0.42;49.63;100794.22;10508471;28;20041;-72
2022/03/06 15:52:12;;;;;;;12.23;8.70;;;;;;;0.63;49.09;100791.22;10507225;28;20449;-73
2022/03/06 15:57:14;;;;;;;8.98;5.95;;;;;;;0.52;49.16;100795.28;10507230;28;20044;-72
2022/03/06 16:02:19;;;;;;;5.45;4.95;;;;;;;0.49;48.90;100790.94;10489118;28;20162;-72
2022/03/06 16:07:21;;;;;;;4.88;4.38;;;;;;;0.42;49.05;100799.41;10488765;28;20051;-72
2022/03/06 16:12:23;;;;;;;4.85;4.40;;;;;;;0.37;48.96;100798.44;10507549;28;20041;-73
2022/03/06 16:17:42;;;;;;;5.30;4.80;;;;;;;0.48;48.92;100812.44;10507327;28;20037;-71
2022/03/06 16:22:45;;;;;;;5.85;5.13;;;;;;;0.27;49.36;100805.13;10486330;28;20076;-72
2022/03/06 16:27:48;;;;;;;6.40;5.80;;;;;;;0.41;49.77;100803.69;10487228;28;20056;-73
2022/03/06 16:32:50;;;;;;;8.13;6.82;;;;;;;0.42;49.54;100804.56;10506247;28;20094;-73
2022/03/06 16:37:51;;;;;;;7.55;6.10;;;;;;;0.33;49.95;100805.25;10506701;28;20550;-73
2022/03/06 16:42:53;;;;;;;7.18;6.57;;;;;;;0.23;50.85;100821.41;10449962;28;20044;-71
2022/03/06 16:47:55;;;;;;;7.35;6.65;;;;;;;0.21;50.66;100810.13;10476410;28;20052;-70
2022/03/06 16:53:00;;;;;;;6.70;6.03;;;;;;;0.14;50.98;100818.59;10504681;28;20119;-71
2022/03/06 16:58:05;;;;;;;6.80;6.10;;;;;;;0.14;51.23;100821.19;10503253;28;20039;-71
2022/03/06 17:03:10;;;;;;;6.03;5.55;;;;;;;-0.06;52.24;100824.16;10503590;28;20041;-71
2022/03/06 17:08:15;;;;;;;6.55;5.93;;;;;;;-0.06;51.75;100825.88;10503351;28;20506;-70
2022/03/06 17:13:17;;;;;;;6.68;6.07;;;;;;;-0.10;52.33;100826.63;10486075;28;20132;-70
2022/03/06 17:18:21;;;;;;;6.78;6.18;;;;;;;0.03;51.71;100828.69;10484060;28;20093;-72
2022/03/06 17:23:22;;;;;;;6.63;6.03;;;;;;;0.04;51.75;100838.16;10502962;28;20044;-71
2022/03/06 17:28:25;;;;;;;8.13;5.82;;;;;;;-0.13;51.99;100832.63;10502911;28;20191;-72
2022/03/06 17:33:28;;;;;;;6.35;5.75;;;;;;;-0.08;51.77;100838.78;10503102;28;20041;-70
2022/03/06 17:38:35;;;;;;;6.80;6.13;;;;;;;-0.16;52.23;100842.88;10499342;28;20033;-71
2022/03/06 17:43:37;;;;;;;7.17;6.50;;;;;;;-0.11;52.44;100846.44;10501965;28;20102;-71
2022/03/06 17:48:38;;;;;;;6.72;6.10;;;;;;;-0.21;52.87;100859.13;10490480;28;20131;-71
2022/03/06 17:53:44;;;;;;;7.78;6.97;;;;;;;-0.15;53.14;100851.50;10502149;28;20036;-72
2022/03/06 17:58:49;;;;;;;7.20;6.50;;;;;;;-0.18;53.12;100854.88;10502158;28;20395;-72
2022/03/06 18:03:52;;;;;;;6.97;6.28;;;;;;;-0.19;53.64;100852.25;10502531;28;20044;-71
2022/03/06 18:08:57;;;;;;;8.27;7.43;;;;;;;-0.02;53.11;100856.13;10500647;28;20123;-72
2022/03/06 18:13:58;;;;;;;8.45;7.65;;;;;;;-0.26;54.12;100862.44;10496761;28;20037;-72
2022/03/06 18:19:01;;;;;;;7.93;7.22;;;;;;;-0.18;53.75;100870.38;10482627;28;20102;-72
2022/03/06 18:24:03;;;;;;;7.75;6.68;;;;;;;-0.10;53.73;100863.69;10510660;28;20457;-71
2022/03/06 18:29:08;;;;;;;7.75;6.95;;;;;;;-0.14;53.87;100866.16;10514932;28;20071;-71
2022/03/06 18:34:32;;;;;;;7.95;7.15;;;;;;;-0.14;54.01;100879.94;10516080;28;20037;-71
2022/03/06 18:39:34;;;;;;;8.55;7.75;;;;;;;-0.16;54.63;100879.06;10515115;28;20052;-71
2022/03/06 18:44:36;;;;;;;12.77;9.48;;;;;;;-0.06;54.50;100874.97;10535547;28;20051;-72
2022/03/06 18:49:38;;;;;;;8.15;7.28;;;;;;;-0.07;54.49;100889.63;10555186;28;20048;-72
2022/03/06 18:54:40;;;;;;;8.93;7.60;;;;;;;-0.26;55.18;100883.13;10555924;28;20162;-71
2022/03/06 18:59:41;;;;;;;7.53;6.85;;;;;;;-0.15;54.74;100882.50;10554778;28;20054;-71
2022/03/06 19:04:43;;;;;;;6.90;6.30;;;;;;;-0.35;55.22;100892.34;10555356;28;20040;-71
2022/03/06 19:09:46;;;;;;;8.38;7.00;;;;;;;-0.51;56.16;100896.22;10539206;28;20055;-71
2022/03/06 19:14:48;;;;;;;12.50;6.07;;;;;;;-0.32;55.55;100901.03;10554851;28;20427;-71
2022/03/06 19:19:50;;;;;;;7.32;5.35;;;;;;;-0.14;54.85;100903.22;10545646;28;20497;-72
2022/03/06 19:24:52;;;;;;;6.32;5.53;;;;;;;-0.43;55.52;100899.88;10513112;28;20433;-71
2022/03/06 19:29:54;;;;;;;6.13;5.53;;;;;;;-0.28;55.91;100897.69;10511442;28;20555;-70
2022/03/06 19:34:55;;;;;;;8.50;6.05;;;;;;;-0.33;55.90;100895.84;10488768;28;20067;-71
2022/03/06 19:39:58;;;;;;;7.68;6.97;;;;;;;-0.41;57.12;100892.16;10496450;28;20143;-71
2022/03/06 19:45:00;;;;;;;7.47;6.45;;;;;;;-0.55;57.74;100891.81;10529787;28;20047;-71
2022/03/06 19:50:01;;;;;;;8.10;6.53;;;;;;;-0.55;58.09;100892.69;10547344;28;20409;-71
2022/03/06 19:55:03;;;;;;;7.50;6.80;;;;;;;-0.46;57.83;100893.75;10546705;28;20044;-71
2022/03/06 20:00:09;;;;;;;7.55;6.55;;;;;;;-0.41;57.75;100903.38;10547929;28;20040;-70
2022/03/06 20:05:12;;;;;;;5.88;5.35;;;;;;;-0.52;58.30;100910.84;10547091;28;20486;-71
2022/03/06 20:10:17;;;;;;;6.15;5.55;;;;;;;-0.48;58.33;100900.59;10547056;28;20052;-70
2022/03/06 20:15:19;;;;;;;9.60;7.35;;;;;;;-0.42;58.06;100905.94;10528363;28;20112;-71
2022/03/06 20:20:20;;;;;;;6.55;5.68;;;;;;;-0.60;59.18;100906.31;10546430;28;20055;-72
2022/03/06 20:25:22;;;;;;;9.25;5.35;;;;;;;-0.52;58.49;100917.72;10546438;28;20105;-72
2022/03/06 20:30:24;;;;;;;6.60;5.32;;;;;;;-0.40;58.50;100922.31;10545814;28;20135;-72
2022/03/06 20:35:26;;;;;;;6.75;5.90;;;;;;;-0.52;58.35;100921.19;10545988;28;20040;-71
2022/03/06 20:40:28;;;;;;;4.93;4.50;;;;;;;-0.38;58.09;100923.25;10543840;28;20504;-71
2022/03/06 20:45:30;;;;;;;5.20;4.75;;;;;;;-0.60;58.91;100924.38;10543791;28;20046;-71
2022/03/06 20:50:35;;;;;;;6.57;4.18;;;;;;;-0.43;58.62;100930.88;10544230;28;20048;-71
2022/03/06 20:55:40;;;;;;;8.00;5.07;;;;;;;-0.56;59.04;100914.19;10527627;28;20036;-71
2022/03/06 21:00:43;;;;;;;5.95;5.45;;;;;;;-0.66;59.15;100926.81;10544733;28;20048;-71
2022/03/06 21:05:45;;;;;;;5.20;4.70;;;;;;;-0.69;59.55;100927.59;10544377;28;20032;-71
2022/03/06 21:10:46;;;;;;;5.68;5.13;;;;;;;-0.70;59.53;100932.72;10544743;28;20050;-72
2022/03/06 21:15:48;;;;;;;5.95;5.32;;;;;;;-0.56;58.99;100936.56;10543474;28;20064;-71
2022/03/06 21:20:50;;;;;;;6.60;6.00;;;;;;;-0.64;58.98;100941.50;10543414;28;20067;-71
2022/03/06 21:25:52;;;;;;;5.95;5.45;;;;;;;-0.76;59.70;100936.84;10525765;28;20036;-71
2022/03/06 21:30:57;;;;;;;8.18;6.38;;;;;;;-0.77;59.71;100939.41;10543439;28;20068;-71
2022/03/06 21:35:59;;;;;;;6.10;5.45;;;;;;;-0.84;60.00;100938.34;10542553;28;20048;-72
2022/03/06 21:41:00;;;;;;;6.43;5.82;;;;;;;-0.94;60.08;100943.19;10524495;28;20048;-71
2022/03/06 21:46:03;;;;;;;6.05;5.45;;;;;;;-0.79;59.75;100943.66;10543094;28;20400;-70
2022/03/06 21:51:04;;;;;;;6.05;5.50;;;;;;;-0.90;60.02;100955.34;10543322;28;20493;-71
2022/03/06 21:56:06;;;;;;;6.35;5.75;;;;;;;-0.80;59.62;100952.19;10541990;28;20101;-71
2022/03/06 22:01:09;;;;;;;5.47;5.07;;;;;;;-0.76;59.84;100947.16;10541516;28;20394;-71
2022/03/06 22:06:11;;;;;;;6.57;5.97;;;;;;;-0.82;59.56;100946.13;10540885;28;20540;-70
2022/03/06 22:11:12;;;;;;;8.77;6.00;;;;;;;-0.93;60.36;100950.09;10524396;28;20044;-70
2022/03/06 22:16:14;;;;;;;6.88;6.07;;;;;;;-0.89;60.70;100946.78;10542251;28;20036;-70
2022/03/06 22:21:16;;;;;;;6.50;5.90;;;;;;;-0.94;60.38;100953.50;10522980;28;20451;-70
2022/03/06 22:26:20;;;;;;;6.82;6.22;;;;;;;-1.00;60.73;100945.59;10541027;28;20397;-70
2022/03/06 22:31:21;;;;;;;8.90;6.80;;;;;;;-0.96;60.57;100956.06;10539984;28;20048;-70
2022/03/06 22:36:23;;;;;;;6.70;6.10;;;;;;;-0.81;59.62;100953.91;10521672;28;20101;-70
2022/03/06 22:41:25;;;;;;;6.82;6.28;;;;;;;-0.86;59.60;100950.31;10540033;28;20054;-71
2022/03/06 22:46:27;;;;;;;7.57;7.00;;;;;;;-0.94;60.30;100951.81;10540267;28;20125;-70
2022/03/06 22:51:28;;;;;;;7.55;6.95;;;;;;;-0.78;59.58;100947.97;10540200;28;20451;-70
2022/03/06 22:56:30;;;;;;;8.07;7.38;;;;;;;-0.99;60.39;100950.81;10522308;28;20143;-71
2022/03/06 23:01:32;;;;;;;7.13;6.50;;;;;;;-0.96;60.54;100939.72;10540840;28;20056;-70
2022/03/06 23:11:54;;;;;;;7.28;6.57;;;;;;;-0.91;60.32;100946.75;10529836;28;20099;-70
2022/03/06 23:16:55;;;;;;;6.93;6.43;;;;;;;-0.98;60.79;100946.50;10529046;28;20050;-71